createdAt,value
2023-05-10T00:01:42.594Z,6.36
2023-05-10T00:04:09.470Z,6.37
2023-05-10T00:06:36.273Z,6.35
2023-05-10T00:09:04.126Z,6.35
2023-05-10T00:11:30.972Z,6.36
2023-05-10T00:13:57.708Z,6.36
2023-05-10T00:16:27.300Z,6.35
2023-05-10T00:18:54.075Z,6.35
2023-05-10T00:21:20.991Z,6.36
2023-05-10T00:23:48.213Z,6.35
2023-05-10T00:26:14.980Z,6.33
2023-05-10T00:28:41.689Z,6.33
2023-05-10T00:31:08.415Z,6.31
2023-05-10T00:33:35.119Z,6.33
2023-05-10T00:36:02.017Z,6.34
2023-05-10T00:38:28.792Z,6.34
2023-05-10T00:40:55.912Z,6.35
2023-05-10T00:43:22.655Z,6.35
2023-05-10T00:45:49.833Z,6.35
2023-05-10T00:48:16.662Z,6.33
2023-05-10T00:50:43.563Z,6.34
2023-05-10T00:53:11.365Z,6.34
2023-05-10T00:55:38.520Z,6.34
2023-05-10T00:58:05.931Z,6.32
2023-05-10T01:00:34.434Z,6.30
2023-05-10T01:03:02.391Z,6.29
2023-05-10T01:05:29.217Z,6.27
2023-05-10T01:07:57.121Z,6.26
2023-05-10T01:10:23.954Z,6.26
2023-05-10T01:12:51.144Z,6.21
2023-05-10T01:15:19.154Z,6.25
2023-05-10T01:17:47.330Z,6.21
2023-05-10T01:20:15.524Z,6.22
2023-05-10T01:23:03.723Z,6.19
2023-05-10T01:25:47.169Z,6.16
2023-05-10T01:28:37.227Z,6.14
2023-05-10T01:31:28.786Z,6.13
2023-05-10T01:34:00.067Z,6.12
2023-05-10T01:36:31.891Z,6.13
2023-05-10T01:38:58.569Z,6.11
2023-05-10T01:41:35.210Z,6.12
2023-05-10T01:44:19.813Z,6.13
2023-05-10T01:46:52.933Z,6.12
2023-05-10T01:49:30.237Z,6.12
2023-05-10T01:52:02.029Z,6.10
2023-05-10T01:54:30.010Z,6.11
2023-05-10T01:57:01.872Z,6.13
2023-05-10T01:59:32.863Z,6.13
2023-05-10T02:02:02.151Z,6.13
2023-05-10T02:04:29.644Z,6.14
2023-05-10T02:06:57.558Z,6.15
2023-05-10T02:09:26.641Z,6.15
2023-05-10T02:11:55.052Z,6.15
2023-05-10T02:14:23.212Z,6.15
2023-05-10T02:16:51.888Z,6.14
2023-05-10T02:19:21.065Z,6.14
2023-05-10T02:22:10.120Z,6.12
2023-05-10T02:24:38.445Z,6.14
2023-05-10T02:27:06.291Z,6.15
2023-05-10T02:29:34.574Z,6.18
2023-05-10T02:32:02.765Z,6.19
2023-05-10T02:34:31.042Z,6.21
2023-05-10T02:36:59.610Z,6.20
2023-05-10T02:39:29.712Z,6.20
2023-05-10T02:41:58.657Z,6.22
2023-05-10T02:44:29.957Z,6.24
2023-05-10T02:46:57.137Z,6.27
2023-05-10T02:49:24.002Z,6.29
2023-05-10T02:51:57.922Z,6.32
2023-05-10T02:54:33.012Z,6.33
2023-05-10T02:57:01.721Z,6.35
2023-05-10T02:59:28.574Z,6.37
2023-05-10T03:01:55.436Z,6.39
2023-05-10T03:04:22.721Z,6.42
2023-05-10T03:06:49.619Z,6.46
2023-05-10T03:09:16.758Z,6.49
2023-05-10T03:11:46.548Z,6.52
2023-05-10T03:14:49.755Z,6.55
2023-05-10T03:17:31.759Z,6.59
2023-05-10T03:20:04.232Z,6.62
2023-05-10T03:22:48.699Z,6.65
2023-05-10T03:25:18.212Z,6.70
2023-05-10T03:27:47.063Z,6.75
2023-05-10T03:30:14.604Z,6.81
2023-05-10T03:32:41.668Z,6.85
2023-05-10T03:35:14.216Z,6.90
2023-05-10T03:37:41.021Z,6.94
2023-05-10T03:40:08.744Z,7.01
2023-05-10T03:42:35.682Z,7.03
2023-05-10T03:45:02.453Z,7.09
2023-05-10T03:47:31.053Z,7.14
2023-05-10T03:49:57.786Z,7.20
2023-05-10T03:52:24.535Z,7.26
2023-05-10T03:54:51.307Z,7.34
2023-05-10T03:57:17.989Z,7.43
2023-05-10T03:59:44.875Z,7.51
2023-05-10T04:02:11.730Z,7.56
2023-05-10T04:04:38.590Z,7.65
2023-05-10T04:07:05.376Z,7.73
2023-05-10T04:09:32.538Z,7.80
2023-05-10T04:12:00.653Z,7.88
2023-05-10T04:14:28.646Z,7.93
2023-05-10T04:16:55.369Z,7.99
2023-05-10T04:19:23.474Z,8.07
2023-05-10T04:21:50.223Z,8.13
2023-05-10T04:24:17.013Z,8.23
2023-05-10T04:26:43.753Z,8.33
2023-05-10T04:29:10.485Z,8.44
2023-05-10T04:31:38.488Z,8.53
2023-05-10T04:34:05.230Z,8.61
2023-05-10T04:36:33.639Z,8.71
2023-05-10T04:39:00.421Z,8.77
2023-05-10T04:41:27.395Z,8.89
2023-05-10T04:43:54.142Z,8.98
2023-05-10T04:46:20.924Z,9.11
2023-05-10T04:48:47.747Z,9.22
2023-05-10T04:51:14.693Z,9.32
2023-05-10T04:53:43.035Z,9.44
2023-05-10T04:56:13.134Z,9.56
2023-05-10T04:58:39.913Z,9.68
2023-05-10T05:01:08.694Z,9.78
2023-05-10T05:03:35.555Z,9.91
2023-05-10T05:06:02.474Z,10.03
2023-05-10T05:08:29.215Z,10.13
2023-05-10T05:10:56.023Z,10.23
2023-05-10T05:13:22.934Z,10.32
2023-05-10T05:15:50.015Z,10.43
2023-05-10T05:18:16.833Z,10.55
2023-05-10T05:20:43.573Z,10.65
2023-05-10T05:23:10.282Z,10.79
2023-05-10T05:25:37.510Z,10.88
2023-05-10T05:28:04.446Z,11.00
2023-05-10T05:30:31.173Z,11.14
2023-05-10T05:32:58.015Z,11.27
2023-05-10T05:35:25.028Z,11.37
2023-05-10T05:37:51.776Z,11.49
2023-05-10T05:40:18.544Z,11.57
2023-05-10T05:42:45.331Z,11.67
2023-05-10T05:45:16.956Z,11.77
2023-05-10T05:47:43.938Z,11.91
2023-05-10T05:50:11.106Z,12.09
2023-05-10T05:52:37.916Z,12.23
2023-05-10T05:55:05.046Z,12.36
2023-05-10T05:57:31.857Z,12.45
2023-05-10T05:59:58.596Z,12.52
2023-05-10T06:02:25.504Z,12.54
2023-05-10T06:04:52.330Z,12.59
2023-05-10T06:07:19.108Z,12.67
2023-05-10T06:09:45.853Z,12.74
2023-05-10T06:12:13.205Z,12.80
2023-05-10T06:14:39.954Z,12.84
2023-05-10T06:17:07.851Z,12.92
2023-05-10T06:19:34.636Z,13.00
2023-05-10T06:22:01.510Z,13.07
2023-05-10T06:24:28.625Z,13.16
2023-05-10T06:26:55.360Z,13.24
2023-05-10T06:29:22.086Z,13.32
2023-05-10T06:31:49.277Z,13.37
2023-05-10T06:34:16.185Z,13.38
2023-05-10T06:36:43.402Z,13.43
2023-05-10T06:39:10.442Z,13.49
2023-05-10T06:41:37.294Z,13.53
2023-05-10T06:44:04.756Z,13.60
2023-05-10T06:46:31.564Z,13.69
2023-05-10T06:48:58.327Z,13.78
2023-05-10T06:51:25.096Z,13.86
2023-05-10T06:53:53.112Z,13.90
2023-05-10T06:56:22.492Z,13.99
2023-05-10T06:58:49.630Z,14.08
2023-05-10T07:01:16.672Z,14.15
2023-05-10T07:03:43.506Z,14.24
2023-05-10T07:06:21.684Z,14.29
2023-05-10T07:08:56.973Z,14.33
2023-05-10T07:11:23.759Z,14.43
2023-05-10T07:13:50.522Z,14.53
2023-05-10T07:16:17.306Z,14.60
2023-05-10T07:18:44.130Z,14.64
2023-05-10T07:21:10.972Z,14.72
2023-05-10T07:23:37.736Z,14.79
2023-05-10T07:26:04.611Z,14.84
2023-05-10T07:28:31.368Z,14.87
2023-05-10T07:30:58.204Z,14.91
2023-05-10T07:33:25.000Z,15.01
2023-05-10T07:35:51.781Z,15.11
2023-05-10T07:38:18.589Z,15.16
2023-05-10T07:40:45.307Z,15.13
2023-05-10T07:43:12.051Z,15.11
2023-05-10T07:45:38.842Z,15.09
2023-05-10T07:48:05.850Z,15.13
2023-05-10T07:50:32.681Z,15.18
2023-05-10T07:52:59.502Z,15.22
2023-05-10T07:55:26.297Z,15.25
2023-05-10T07:57:53.118Z,15.21
2023-05-10T08:00:21.597Z,15.21
2023-05-10T08:02:49.285Z,15.21
2023-05-10T08:05:16.617Z,15.25
2023-05-10T08:07:43.599Z,15.35
2023-05-10T08:10:13.197Z,15.44
2023-05-10T08:12:39.957Z,15.53
2023-05-10T08:15:08.164Z,15.64
2023-05-10T08:17:35.251Z,15.73
2023-05-10T08:20:02.337Z,15.87
2023-05-10T08:22:30.691Z,15.91
2023-05-10T08:24:57.525Z,16.07
2023-05-10T08:27:24.276Z,16.17
2023-05-10T08:29:51.022Z,16.32
2023-05-10T08:32:18.652Z,16.41
2023-05-10T08:34:45.473Z,16.17
2023-05-10T08:37:14.346Z,16.17
2023-05-10T08:39:41.641Z,16.12
2023-05-10T08:42:10.360Z,15.81
2023-05-10T08:44:37.976Z,15.57
2023-05-10T08:47:08.437Z,15.41
2023-05-10T08:49:35.938Z,15.31
2023-05-10T08:52:05.148Z,15.18
2023-05-10T08:54:35.495Z,15.25
2023-05-10T08:57:03.057Z,15.57
2023-05-10T08:59:30.160Z,15.79
2023-05-10T09:02:00.641Z,16.14
2023-05-10T09:04:28.022Z,16.38
2023-05-10T09:06:55.587Z,16.65
2023-05-10T09:09:22.840Z,16.88
2023-05-10T09:11:49.853Z,17.08
2023-05-10T09:14:18.100Z,17.43
2023-05-10T09:16:44.877Z,17.48
2023-05-10T09:19:11.878Z,17.63
2023-05-10T09:21:39.398Z,17.64
2023-05-10T09:24:09.975Z,17.69
2023-05-10T09:26:47.321Z,17.88
2023-05-10T09:29:17.209Z,18.05
2023-05-10T09:31:53.173Z,17.89
2023-05-10T09:34:21.591Z,17.60
2023-05-10T09:36:53.291Z,17.62
2023-05-10T09:39:20.277Z,17.76
2023-05-10T09:41:47.113Z,17.85
2023-05-10T09:44:20.045Z,17.80
2023-05-10T09:46:51.676Z,17.78
2023-05-10T09:49:18.449Z,17.77
2023-05-10T09:51:45.191Z,17.69
2023-05-10T09:54:13.122Z,17.63
2023-05-10T09:56:41.646Z,17.51
2023-05-10T09:59:11.880Z,17.23
2023-05-10T10:01:39.919Z,17.22
2023-05-10T10:04:08.552Z,17.24
2023-05-10T10:06:39.727Z,17.28
2023-05-10T10:09:10.216Z,17.31
2023-05-10T10:11:38.471Z,17.34
2023-05-10T10:14:06.199Z,17.31
2023-05-10T10:16:33.618Z,17.39
2023-05-10T10:19:00.626Z,17.48
2023-05-10T10:21:28.007Z,17.40
2023-05-10T10:23:54.836Z,17.30
2023-05-10T10:26:22.186Z,17.27
2023-05-10T10:28:49.024Z,17.17
2023-05-10T10:31:40.441Z,17.00
2023-05-10T10:34:09.745Z,16.97
2023-05-10T10:36:49.336Z,17.02
2023-05-10T10:39:17.058Z,16.97
2023-05-10T10:41:53.916Z,16.90
2023-05-10T10:44:26.550Z,16.85
2023-05-10T10:47:07.348Z,16.90
2023-05-10T10:49:39.528Z,16.91
2023-05-10T10:52:29.575Z,16.94
2023-05-10T10:55:24.736Z,16.93
2023-05-10T10:57:56.085Z,16.97
2023-05-10T11:00:25.803Z,17.01
2023-05-10T11:03:11.761Z,17.02
2023-05-10T11:05:49.208Z,16.95
2023-05-10T11:08:32.702Z,16.88
2023-05-10T11:11:03.252Z,16.76
2023-05-10T11:13:39.566Z,16.65
2023-05-10T11:16:15.616Z,16.54
2023-05-10T11:18:54.320Z,16.40
2023-05-10T11:21:21.644Z,16.32
2023-05-10T11:23:49.458Z,16.32
2023-05-10T11:26:16.318Z,16.39
2023-05-10T11:28:49.050Z,16.45
2023-05-10T11:31:19.971Z,16.53
2023-05-10T11:33:52.186Z,16.52
2023-05-10T11:36:21.629Z,16.48
2023-05-10T11:38:49.665Z,16.50
2023-05-10T11:41:19.065Z,16.48
2023-05-10T11:43:49.994Z,16.49
2023-05-10T11:46:21.445Z,16.50
2023-05-10T11:48:52.019Z,16.49
2023-05-10T11:51:23.462Z,16.50
2023-05-10T11:53:53.583Z,16.50
2023-05-10T11:56:22.063Z,16.46
2023-05-10T11:58:58.204Z,16.44
2023-05-10T12:01:26.262Z,16.42
2023-05-10T12:03:54.412Z,16.36
2023-05-10T12:06:22.438Z,16.28
2023-05-10T12:08:53.674Z,16.21
2023-05-10T12:11:22.819Z,16.19
2023-05-10T12:13:50.982Z,16.16
2023-05-10T12:16:22.734Z,16.15
2023-05-10T12:18:52.196Z,16.18
2023-05-10T12:21:21.071Z,16.18
2023-05-10T12:23:48.374Z,16.09
2023-05-10T12:26:15.451Z,16.15
2023-05-10T12:28:42.228Z,16.19
2023-05-10T12:31:09.939Z,16.25
2023-05-10T12:33:45.653Z,16.30
2023-05-10T12:36:15.064Z,16.39
2023-05-10T12:38:50.020Z,16.49
2023-05-10T12:41:18.704Z,16.58
2023-05-10T12:43:46.655Z,16.49
2023-05-10T12:46:15.505Z,16.52
2023-05-10T12:48:44.027Z,16.56
2023-05-10T12:51:12.935Z,16.61
2023-05-10T12:53:42.765Z,16.65
2023-05-10T12:56:11.430Z,16.69
2023-05-10T12:58:38.166Z,16.73
2023-05-10T13:01:06.561Z,16.74
2023-05-10T13:03:33.720Z,16.74
2023-05-10T13:06:00.629Z,16.76
2023-05-10T13:08:27.479Z,16.76
2023-05-10T13:10:54.353Z,16.76
2023-05-10T13:13:21.209Z,16.75
2023-05-10T13:15:47.931Z,16.75
2023-05-10T13:18:14.704Z,16.75
2023-05-10T13:20:41.725Z,16.76
2023-05-10T13:23:08.548Z,16.81
2023-05-10T13:25:35.512Z,16.94
2023-05-10T13:28:02.828Z,16.94
2023-05-10T13:30:30.038Z,16.90
2023-05-10T13:32:56.824Z,16.85
2023-05-10T13:35:23.728Z,16.80
2023-05-10T13:37:50.541Z,16.78
2023-05-10T13:40:17.903Z,16.71
2023-05-10T13:42:44.916Z,16.64
2023-05-10T13:45:13.363Z,16.60
2023-05-10T13:47:40.301Z,16.56
2023-05-10T13:50:07.861Z,16.53
2023-05-10T13:52:34.697Z,16.52
2023-05-10T13:55:01.708Z,16.52
2023-05-10T13:57:31.409Z,16.50
2023-05-10T13:59:58.682Z,16.49
2023-05-10T14:02:25.895Z,16.46
2023-05-10T14:04:52.824Z,16.44
2023-05-10T14:07:19.714Z,16.41
2023-05-10T14:09:46.456Z,16.38
2023-05-10T14:12:13.263Z,16.36
2023-05-10T14:14:40.178Z,16.32
2023-05-10T14:17:08.223Z,16.25
2023-05-10T14:19:35.869Z,16.24
2023-05-10T14:22:02.620Z,16.19
2023-05-10T14:24:29.420Z,16.13
2023-05-10T14:26:56.244Z,16.07
2023-05-10T14:29:23.246Z,16.00
2023-05-10T14:31:51.040Z,15.98
2023-05-10T14:34:17.865Z,15.92
2023-05-10T14:36:44.676Z,15.85
2023-05-10T14:39:13.737Z,15.79
2023-05-10T14:41:43.995Z,15.75
2023-05-10T14:44:11.192Z,15.69
2023-05-10T14:46:38.365Z,15.64
2023-05-10T14:49:05.199Z,15.60
2023-05-10T14:51:32.920Z,15.56
2023-05-10T14:53:59.851Z,15.50
2023-05-10T14:56:27.234Z,15.43
2023-05-10T14:58:54.098Z,15.39
2023-05-10T15:01:21.374Z,15.38
2023-05-10T15:03:48.658Z,15.36
2023-05-10T15:06:19.088Z,15.34
2023-05-10T15:08:45.806Z,15.27
2023-05-10T15:11:12.520Z,15.25
2023-05-10T15:13:39.814Z,15.17
2023-05-10T15:16:06.630Z,15.12
2023-05-10T15:18:33.457Z,15.11
2023-05-10T15:21:00.284Z,15.08
2023-05-10T15:23:27.290Z,15.04
2023-05-10T15:25:56.898Z,14.96
2023-05-10T15:28:23.757Z,14.92
2023-05-10T15:30:51.127Z,14.89
2023-05-10T15:33:17.985Z,14.88
2023-05-10T15:35:44.818Z,14.88
2023-05-10T15:38:11.630Z,14.87
2023-05-10T15:40:38.367Z,14.83
2023-05-10T15:43:06.369Z,14.79
2023-05-10T15:45:35.180Z,14.74
2023-05-10T15:48:03.741Z,14.70
2023-05-10T15:50:30.506Z,14.66
2023-05-10T15:52:57.452Z,14.63
2023-05-10T15:55:24.237Z,14.60
2023-05-10T15:57:51.480Z,14.55
2023-05-10T16:00:19.133Z,14.49
2023-05-10T16:02:46.182Z,14.44
2023-05-10T16:05:14.070Z,14.40
2023-05-10T16:07:42.101Z,14.36
2023-05-10T16:10:12.436Z,14.31
2023-05-10T16:12:39.701Z,14.22
2023-05-10T16:15:07.263Z,14.20
2023-05-10T16:17:34.142Z,14.15
2023-05-10T16:20:01.432Z,14.11
2023-05-10T16:22:28.929Z,14.07
2023-05-10T16:24:57.427Z,14.02
2023-05-10T16:27:24.276Z,13.95
2023-05-10T16:29:51.217Z,13.91
2023-05-10T16:32:17.969Z,13.86
2023-05-10T16:34:44.840Z,13.80
2023-05-10T16:37:11.604Z,13.73
2023-05-10T16:39:38.604Z,13.67
2023-05-10T16:42:05.773Z,13.60
2023-05-10T16:44:32.654Z,13.55
2023-05-10T16:46:59.376Z,13.49
2023-05-10T16:49:26.725Z,13.42
2023-05-10T16:51:53.566Z,13.37
2023-05-10T16:54:22.008Z,13.33
2023-05-10T16:56:48.981Z,13.26
2023-05-10T16:59:16.603Z,13.22
2023-05-10T17:01:43.712Z,13.18
2023-05-10T17:04:10.678Z,13.15
2023-05-10T17:06:37.954Z,13.11
2023-05-10T17:09:05.852Z,13.08
2023-05-10T17:11:33.087Z,13.04
2023-05-10T17:14:01.541Z,13.01
2023-05-10T17:16:30.333Z,12.98
2023-05-10T17:18:57.234Z,12.82
2023-05-10T17:21:24.043Z,12.81
2023-05-10T17:23:50.878Z,12.76
2023-05-10T17:26:17.670Z,12.69
2023-05-10T17:28:44.438Z,12.64
2023-05-10T17:31:11.873Z,12.61
2023-05-10T17:33:38.793Z,12.59
2023-05-10T17:36:05.801Z,12.57
2023-05-10T17:38:32.525Z,12.56
2023-05-10T17:40:59.226Z,12.55
2023-05-10T17:43:26.271Z,12.54
2023-05-10T17:45:53.209Z,12.52
2023-05-10T17:48:20.136Z,12.48
2023-05-10T17:50:47.030Z,12.41
2023-05-10T17:53:13.784Z,12.37
2023-05-10T17:55:42.208Z,12.34
2023-05-10T17:58:11.272Z,12.28
2023-05-10T18:00:38.646Z,12.24
2023-05-10T18:03:06.557Z,12.19
2023-05-10T18:05:37.678Z,12.15
2023-05-10T18:08:05.713Z,12.08
2023-05-10T18:10:32.550Z,12.02
2023-05-10T18:12:59.532Z,11.98
2023-05-10T18:15:27.810Z,11.96
2023-05-10T18:17:56.046Z,11.90
2023-05-10T18:20:23.064Z,11.86
2023-05-10T18:22:49.924Z,11.84
2023-05-10T18:25:17.355Z,11.80
2023-05-10T18:27:44.585Z,11.77
2023-05-10T18:30:12.660Z,11.74
2023-05-10T18:32:39.976Z,11.70
2023-05-10T18:35:08.252Z,11.67
2023-05-10T18:37:35.373Z,11.66
2023-05-10T18:40:02.214Z,11.62
2023-05-10T18:42:29.950Z,11.60
2023-05-10T18:44:56.751Z,11.56
2023-05-10T18:47:23.775Z,11.54
2023-05-10T18:49:50.566Z,11.50
2023-05-10T18:52:17.363Z,11.49
2023-05-10T18:54:44.325Z,11.48
2023-05-10T18:57:12.519Z,11.47
2023-05-10T18:59:39.915Z,11.44
2023-05-10T19:02:06.694Z,11.42
2023-05-10T19:04:33.528Z,11.38
2023-05-10T19:07:02.090Z,11.35
2023-05-10T19:09:29.178Z,11.33
2023-05-10T19:11:56.801Z,11.32
2023-05-10T19:14:25.303Z,11.30
2023-05-10T19:16:53.683Z,11.25
2023-05-10T19:19:21.509Z,11.22
2023-05-10T19:21:48.392Z,11.20
2023-05-10T19:24:15.286Z,11.17
2023-05-10T19:26:42.122Z,11.15
2023-05-10T19:29:09.556Z,11.12
2023-05-10T19:31:36.460Z,11.10
2023-05-10T19:34:03.828Z,11.09
2023-05-10T19:36:32.482Z,11.05
2023-05-10T19:38:59.301Z,11.02
2023-05-10T19:41:25.996Z,11.01
2023-05-10T19:43:52.867Z,10.96
2023-05-10T19:46:20.319Z,10.96
2023-05-10T19:48:47.268Z,10.94
2023-05-10T19:51:14.070Z,10.92
2023-05-10T19:53:44.604Z,10.91
2023-05-10T19:56:12.833Z,10.92
2023-05-10T19:58:40.150Z,10.88
2023-05-10T20:01:08.074Z,10.84
2023-05-10T20:03:36.269Z,10.81
2023-05-10T20:06:04.077Z,10.78
2023-05-10T20:08:31.501Z,10.77
2023-05-10T20:11:00.699Z,10.70
2023-05-10T20:13:27.548Z,10.70
2023-05-10T20:15:59.568Z,10.70
2023-05-10T20:18:27.149Z,10.66
2023-05-10T20:20:55.226Z,10.66
2023-05-10T20:23:22.749Z,10.64
2023-05-10T20:25:49.688Z,10.62
2023-05-10T20:28:21.897Z,10.60
2023-05-10T20:30:52.459Z,10.53
2023-05-10T20:33:20.275Z,10.50
2023-05-10T20:35:47.083Z,10.48
2023-05-10T20:38:13.910Z,10.46
2023-05-10T20:40:40.619Z,10.43
2023-05-10T20:43:07.433Z,10.38
2023-05-10T20:45:35.372Z,10.35
2023-05-10T20:48:03.081Z,10.21
2023-05-10T20:50:29.856Z,10.19
2023-05-10T20:52:56.591Z,10.17
2023-05-10T20:55:23.314Z,10.17
2023-05-10T20:57:50.164Z,10.15
2023-05-10T21:00:17.400Z,10.13
2023-05-10T21:02:45.682Z,10.11
2023-05-10T21:05:12.642Z,10.08
2023-05-10T21:07:40.464Z,10.09
2023-05-10T21:10:08.389Z,10.09
2023-05-10T21:12:35.209Z,10.07
2023-05-10T21:15:02.716Z,10.06
2023-05-10T21:17:30.038Z,10.02
2023-05-10T21:19:56.836Z,10.03
2023-05-10T21:22:23.544Z,10.02
2023-05-10T21:24:50.270Z,10.01
2023-05-10T21:27:16.991Z,9.99
2023-05-10T21:29:43.827Z,9.97
2023-05-10T21:32:10.662Z,9.98
2023-05-10T21:34:37.492Z,9.99
2023-05-10T21:37:05.290Z,9.99
2023-05-10T21:39:32.027Z,9.98
2023-05-10T21:44:44.343Z,9.95
2023-05-10T21:47:11.336Z,9.94
2023-05-10T21:49:38.101Z,9.94
2023-05-10T21:52:05.004Z,9.92
2023-05-10T21:54:31.824Z,9.93
2023-05-10T21:56:58.647Z,9.92
2023-05-10T21:59:25.526Z,9.93
2023-05-10T22:01:52.293Z,9.93
2023-05-10T22:04:19.080Z,9.93
2023-05-10T22:09:29.895Z,9.87
2023-05-10T22:11:56.615Z,9.85
2023-05-10T22:14:23.366Z,9.85
2023-05-10T22:16:50.183Z,9.85
2023-05-10T22:19:17.033Z,9.84
2023-05-10T22:21:43.722Z,9.83
2023-05-10T22:24:10.521Z,9.84
2023-05-10T22:26:37.401Z,9.82
2023-05-10T22:29:04.341Z,9.82
2023-05-10T22:31:31.690Z,9.82
2023-05-10T22:36:42.858Z,9.78
2023-05-10T22:39:09.582Z,9.78
2023-05-10T22:41:36.484Z,9.78
2023-05-10T22:44:04.986Z,9.76
2023-05-10T22:46:32.517Z,9.74
2023-05-10T22:49:00.125Z,9.73
2023-05-10T22:51:26.868Z,9.72
2023-05-10T22:53:54.681Z,9.71
2023-05-10T22:56:22.722Z,9.70
2023-05-10T22:58:49.773Z,9.66
2023-05-10T23:01:16.624Z,9.66
2023-05-10T23:03:43.399Z,9.68
2023-05-10T23:06:10.192Z,9.68
2023-05-10T23:08:36.917Z,9.67
2023-05-10T23:11:03.671Z,9.66
2023-05-10T23:13:30.499Z,9.64
2023-05-10T23:15:57.395Z,9.64
2023-05-10T23:18:24.211Z,9.62
2023-05-10T23:20:50.980Z,9.62
2023-05-10T23:23:17.840Z,9.60
2023-05-10T23:25:44.678Z,9.60
2023-05-10T23:28:11.523Z,9.60
2023-05-10T23:30:38.247Z,9.60
2023-05-10T23:33:05.080Z,9.60
2023-05-10T23:35:31.803Z,9.59
2023-05-10T23:37:58.533Z,9.60
2023-05-10T23:40:25.405Z,9.60
2023-05-10T23:42:52.104Z,9.59
2023-05-10T23:45:18.931Z,9.58
2023-05-10T23:47:45.917Z,9.58
2023-05-10T23:50:12.689Z,9.58
2023-05-10T23:52:39.445Z,9.57
2023-05-10T23:55:06.631Z,9.55
2023-05-10T23:57:33.337Z,9.55
